sensor_id;sensor_type;location;lat;lon;timestamp;temperature;humidity
23231;DHT22;11784;49.818;8.632;2022-12-29T00:02:16;12.80;79.20
23231;DHT22;11784;49.818;8.632;2022-12-29T00:04:42;12.80;79.30
23231;DHT22;11784;49.818;8.632;2022-12-29T00:07:11;12.80;79.40
23231;DHT22;11784;49.818;8.632;2022-12-29T00:09:36;12.80;79.50
23231;DHT22;11784;49.818;8.632;2022-12-29T00:12:04;12.80;79.50
23231;DHT22;11784;49.818;8.632;2022-12-29T00:14:29;12.80;79.60
23231;DHT22;11784;49.818;8.632;2022-12-29T00:17:13;12.90;79.60
23231;DHT22;11784;49.818;8.632;2022-12-29T00:19:39;12.90;79.80
23231;DHT22;11784;49.818;8.632;2022-12-29T00:22:24;12.90;80.00
23231;DHT22;11784;49.818;8.632;2022-12-29T00:25:11;12.90;80.20
23231;DHT22;11784;49.818;8.632;2022-12-29T00:27:55;12.90;80.70
23231;DHT22;11784;49.818;8.632;2022-12-29T00:30:40;12.90;81.00
23231;DHT22;11784;49.818;8.632;2022-12-29T00:33:32;12.90;81.20
23231;DHT22;11784;49.818;8.632;2022-12-29T00:36:28;12.90;81.30
23231;DHT22;11784;49.818;8.632;2022-12-29T00:39:01;12.90;81.60
23231;DHT22;11784;49.818;8.632;2022-12-29T00:41:46;12.90;81.80
23231;DHT22;11784;49.818;8.632;2022-12-29T00:44:30;12.90;82.20
23231;DHT22;11784;49.818;8.632;2022-12-29T00:46:56;12.90;83.20
23231;DHT22;11784;49.818;8.632;2022-12-29T00:49:21;12.90;84.00
23231;DHT22;11784;49.818;8.632;2022-12-29T00:52:07;12.90;84.10
23231;DHT22;11784;49.818;8.632;2022-12-29T00:54:35;12.90;83.60
23231;DHT22;11784;49.818;8.632;2022-12-29T00:57:02;12.90;83.80
23231;DHT22;11784;49.818;8.632;2022-12-29T00:59:27;12.90;83.80
23231;DHT22;11784;49.818;8.632;2022-12-29T01:01:56;13.00;84.00
23231;DHT22;11784;49.818;8.632;2022-12-29T01:04:23;13.00;84.00
23231;DHT22;11784;49.818;8.632;2022-12-29T01:06:49;13.00;84.20
23231;DHT22;11784;49.818;8.632;2022-12-29T01:09:16;13.00;84.40
23231;DHT22;11784;49.818;8.632;2022-12-29T01:12:00;12.90;84.50
23231;DHT22;11784;49.818;8.632;2022-12-29T01:14:26;12.90;84.80
23231;DHT22;11784;49.818;8.632;2022-12-29T01:16:53;13.00;85.40
23231;DHT22;11784;49.818;8.632;2022-12-29T01:19:18;13.00;86.10
23231;DHT22;11784;49.818;8.632;2022-12-29T01:21:45;13.00;86.90
23231;DHT22;11784;49.818;8.632;2022-12-29T01:24:10;13.00;87.20
23231;DHT22;11784;49.818;8.632;2022-12-29T01:26:36;13.00;87.60
23231;DHT22;11784;49.818;8.632;2022-12-29T01:29:01;13.00;88.20
23231;DHT22;11784;49.818;8.632;2022-12-29T01:31:27;13.10;89.50
23231;DHT22;11784;49.818;8.632;2022-12-29T01:33:52;13.10;90.00
23231;DHT22;11784;49.818;8.632;2022-12-29T01:36:18;13.10;90.10
23231;DHT22;11784;49.818;8.632;2022-12-29T01:38:44;13.10;90.50
23231;DHT22;11784;49.818;8.632;2022-12-29T01:41:12;13.10;90.50
23231;DHT22;11784;49.818;8.632;2022-12-29T01:43:46;13.10;90.60
23231;DHT22;11784;49.818;8.632;2022-12-29T01:46:36;13.10;90.60
23231;DHT22;11784;49.818;8.632;2022-12-29T01:51:31;13.10;90.70
23231;DHT22;11784;49.818;8.632;2022-12-29T01:54:00;13.10;90.70
23231;DHT22;11784;49.818;8.632;2022-12-29T01:56:27;13.10;90.80
23231;DHT22;11784;49.818;8.632;2022-12-29T01:59:00;13.10;90.80
23231;DHT22;11784;49.818;8.632;2022-12-29T02:01:27;13.10;90.90
23231;DHT22;11784;49.818;8.632;2022-12-29T02:03:53;13.10;91.20
23231;DHT22;11784;49.818;8.632;2022-12-29T02:06:42;13.10;90.80
23231;DHT22;11784;49.818;8.632;2022-12-29T02:09:10;13.10;90.80
23231;DHT22;11784;49.818;8.632;2022-12-29T02:11:36;13.10;90.80
23231;DHT22;11784;49.818;8.632;2022-12-29T02:14:08;13.10;90.80
23231;DHT22;11784;49.818;8.632;2022-12-29T02:22:10;13.20;90.80
23231;DHT22;11784;49.818;8.632;2022-12-29T02:40:39;13.20;91.20
23231;DHT22;11784;49.818;8.632;2022-12-29T02:46:00;13.20;91.20
23231;DHT22;11784;49.818;8.632;2022-12-29T02:48:51;13.20;91.20
23231;DHT22;11784;49.818;8.632;2022-12-29T02:51:27;13.20;91.20
23231;DHT22;11784;49.818;8.632;2022-12-29T02:53:56;13.20;91.60
23231;DHT22;11784;49.818;8.632;2022-12-29T02:56:44;13.20;91.30
23231;DHT22;11784;49.818;8.632;2022-12-29T02:59:11;13.20;91.30
23231;DHT22;11784;49.818;8.632;2022-12-29T03:04:56;13.20;91.40
23231;DHT22;11784;49.818;8.632;2022-12-29T03:07:44;13.20;91.40
23231;DHT22;11784;49.818;8.632;2022-12-29T03:13:20;13.20;91.40
23231;DHT22;11784;49.818;8.632;2022-12-29T03:16:20;13.30;91.30
23231;DHT22;11784;49.818;8.632;2022-12-29T03:19:15;13.30;91.30
23231;DHT22;11784;49.818;8.632;2022-12-29T03:22:05;13.30;91.20
23231;DHT22;11784;49.818;8.632;2022-12-29T03:25:03;13.30;91.20
23231;DHT22;11784;49.818;8.632;2022-12-29T03:27:34;13.30;91.20
23231;DHT22;11784;49.818;8.632;2022-12-29T03:30:03;13.30;91.20
23231;DHT22;11784;49.818;8.632;2022-12-29T03:32:40;13.30;91.20
23231;DHT22;11784;49.818;8.632;2022-12-29T03:35:08;13.30;91.10
23231;DHT22;11784;49.818;8.632;2022-12-29T03:37:39;13.40;91.10
23231;DHT22;11784;49.818;8.632;2022-12-29T03:40:06;13.40;91.00
23231;DHT22;11784;49.818;8.632;2022-12-29T03:42:34;13.30;91.00
23231;DHT22;11784;49.818;8.632;2022-12-29T03:45:00;13.30;90.90
23231;DHT22;11784;49.818;8.632;2022-12-29T03:47:26;13.40;90.90
23231;DHT22;11784;49.818;8.632;2022-12-29T03:49:52;13.30;90.90
23231;DHT22;11784;49.818;8.632;2022-12-29T03:52:18;13.30;90.90
23231;DHT22;11784;49.818;8.632;2022-12-29T03:54:44;13.30;90.90
23231;DHT22;11784;49.818;8.632;2022-12-29T03:57:10;13.30;90.90
23231;DHT22;11784;49.818;8.632;2022-12-29T03:59:36;13.20;90.80
23231;DHT22;11784;49.818;8.632;2022-12-29T04:02:01;13.30;90.80
23231;DHT22;11784;49.818;8.632;2022-12-29T04:04:27;13.30;90.80
23231;DHT22;11784;49.818;8.632;2022-12-29T04:06:53;13.30;90.90
23231;DHT22;11784;49.818;8.632;2022-12-29T04:09:18;13.30;90.80
23231;DHT22;11784;49.818;8.632;2022-12-29T04:11:44;13.30;90.70
23231;DHT22;11784;49.818;8.632;2022-12-29T04:14:09;13.30;90.70
23231;DHT22;11784;49.818;8.632;2022-12-29T04:16:35;13.30;90.60
23231;DHT22;11784;49.818;8.632;2022-12-29T04:19:02;13.30;90.60
23231;DHT22;11784;49.818;8.632;2022-12-29T04:21:27;13.30;90.60
23231;DHT22;11784;49.818;8.632;2022-12-29T04:23:53;13.30;90.60
23231;DHT22;11784;49.818;8.632;2022-12-29T04:26:18;13.30;90.60
23231;DHT22;11784;49.818;8.632;2022-12-29T04:28:44;13.30;90.50
23231;DHT22;11784;49.818;8.632;2022-12-29T04:31:10;13.30;90.60
23231;DHT22;11784;49.818;8.632;2022-12-29T04:33:35;13.30;90.50
23231;DHT22;11784;49.818;8.632;2022-12-29T04:36:01;13.30;90.40
23231;DHT22;11784;49.818;8.632;2022-12-29T04:38:26;13.30;90.40
23231;DHT22;11784;49.818;8.632;2022-12-29T04:40:52;13.30;90.40
23231;DHT22;11784;49.818;8.632;2022-12-29T04:43:18;13.30;90.40
23231;DHT22;11784;49.818;8.632;2022-12-29T04:45:47;13.30;90.30
23231;DHT22;11784;49.818;8.632;2022-12-29T04:48:13;13.30;90.20
23231;DHT22;11784;49.818;8.632;2022-12-29T04:50:40;13.30;90.20
23231;DHT22;11784;49.818;8.632;2022-12-29T04:53:06;13.40;90.20
23231;DHT22;11784;49.818;8.632;2022-12-29T04:55:32;13.30;90.00
23231;DHT22;11784;49.818;8.632;2022-12-29T04:57:57;13.30;90.00
23231;DHT22;11784;49.818;8.632;2022-12-29T05:00:23;13.40;90.00
23231;DHT22;11784;49.818;8.632;2022-12-29T05:02:51;13.40;89.90
23231;DHT22;11784;49.818;8.632;2022-12-29T05:05:17;13.40;89.90
23231;DHT22;11784;49.818;8.632;2022-12-29T05:07:42;13.40;89.90
23231;DHT22;11784;49.818;8.632;2022-12-29T05:10:08;13.40;89.80
23231;DHT22;11784;49.818;8.632;2022-12-29T05:12:35;13.40;89.50
23231;DHT22;11784;49.818;8.632;2022-12-29T05:15:01;13.50;89.70
23231;DHT22;11784;49.818;8.632;2022-12-29T05:17:28;13.40;89.50
23231;DHT22;11784;49.818;8.632;2022-12-29T05:19:54;13.40;89.50
23231;DHT22;11784;49.818;8.632;2022-12-29T05:22:20;13.50;89.20
23231;DHT22;11784;49.818;8.632;2022-12-29T05:24:45;13.40;89.20
23231;DHT22;11784;49.818;8.632;2022-12-29T05:27:11;13.50;89.30
23231;DHT22;11784;49.818;8.632;2022-12-29T05:29:37;13.40;89.00
23231;DHT22;11784;49.818;8.632;2022-12-29T05:32:02;13.50;89.10
23231;DHT22;11784;49.818;8.632;2022-12-29T05:34:28;13.40;89.70
23231;DHT22;11784;49.818;8.632;2022-12-29T05:36:53;13.50;89.10
23231;DHT22;11784;49.818;8.632;2022-12-29T05:39:19;13.50;88.70
23231;DHT22;11784;49.818;8.632;2022-12-29T05:41:45;13.50;88.60
23231;DHT22;11784;49.818;8.632;2022-12-29T05:44:11;13.50;88.70
23231;DHT22;11784;49.818;8.632;2022-12-29T05:46:37;13.50;88.70
23231;DHT22;11784;49.818;8.632;2022-12-29T05:49:02;13.50;88.50
23231;DHT22;11784;49.818;8.632;2022-12-29T05:51:28;13.60;88.20
23231;DHT22;11784;49.818;8.632;2022-12-29T05:53:53;13.60;88.20
23231;DHT22;11784;49.818;8.632;2022-12-29T05:56:19;13.60;87.90
23231;DHT22;11784;49.818;8.632;2022-12-29T05:58:44;13.60;87.80
23231;DHT22;11784;49.818;8.632;2022-12-29T06:01:10;13.60;88.00
23231;DHT22;11784;49.818;8.632;2022-12-29T06:03:35;13.50;88.00
23231;DHT22;11784;49.818;8.632;2022-12-29T06:06:01;13.60;87.70
23231;DHT22;11784;49.818;8.632;2022-12-29T06:08:26;13.60;87.50
23231;DHT22;11784;49.818;8.632;2022-12-29T06:10:52;13.60;87.60
23231;DHT22;11784;49.818;8.632;2022-12-29T06:13:17;13.60;87.50
23231;DHT22;11784;49.818;8.632;2022-12-29T06:15:43;13.60;87.40
23231;DHT22;11784;49.818;8.632;2022-12-29T06:18:08;13.60;87.60
23231;DHT22;11784;49.818;8.632;2022-12-29T06:20:34;13.50;87.40
23231;DHT22;11784;49.818;8.632;2022-12-29T06:23:00;13.60;87.50
23231;DHT22;11784;49.818;8.632;2022-12-29T06:25:25;13.60;87.50
23231;DHT22;11784;49.818;8.632;2022-12-29T06:27:51;13.60;87.40
23231;DHT22;11784;49.818;8.632;2022-12-29T06:30:16;13.60;87.40
23231;DHT22;11784;49.818;8.632;2022-12-29T06:32:42;13.60;87.40
23231;DHT22;11784;49.818;8.632;2022-12-29T06:35:08;13.60;87.30
23231;DHT22;11784;49.818;8.632;2022-12-29T06:37:33;13.60;87.40
23231;DHT22;11784;49.818;8.632;2022-12-29T06:39:59;13.60;87.40
23231;DHT22;11784;49.818;8.632;2022-12-29T06:42:24;13.50;87.30
23231;DHT22;11784;49.818;8.632;2022-12-29T06:44:50;13.50;87.40
23231;DHT22;11784;49.818;8.632;2022-12-29T06:47:16;13.60;87.50
23231;DHT22;11784;49.818;8.632;2022-12-29T06:49:41;13.60;87.50
23231;DHT22;11784;49.818;8.632;2022-12-29T06:52:07;13.60;87.40
23231;DHT22;11784;49.818;8.632;2022-12-29T06:54:32;13.60;87.40
23231;DHT22;11784;49.818;8.632;2022-12-29T06:56:58;13.60;87.40
23231;DHT22;11784;49.818;8.632;2022-12-29T06:59:24;13.50;87.30
23231;DHT22;11784;49.818;8.632;2022-12-29T07:01:50;13.50;87.30
23231;DHT22;11784;49.818;8.632;2022-12-29T07:04:16;13.50;87.30
23231;DHT22;11784;49.818;8.632;2022-12-29T07:06:42;13.60;87.20
23231;DHT22;11784;49.818;8.632;2022-12-29T07:09:08;13.60;87.20
23231;DHT22;11784;49.818;8.632;2022-12-29T07:11:34;13.60;87.20
23231;DHT22;11784;49.818;8.632;2022-12-29T07:13:59;13.60;87.20
23231;DHT22;11784;49.818;8.632;2022-12-29T07:16:25;13.60;87.10
23231;DHT22;11784;49.818;8.632;2022-12-29T07:18:51;13.60;87.20
23231;DHT22;11784;49.818;8.632;2022-12-29T07:21:17;13.60;87.20
23231;DHT22;11784;49.818;8.632;2022-12-29T07:23:42;13.60;87.60
23231;DHT22;11784;49.818;8.632;2022-12-29T07:26:10;13.60;88.20
23231;DHT22;11784;49.818;8.632;2022-12-29T07:28:37;13.70;88.80
23231;DHT22;11784;49.818;8.632;2022-12-29T07:31:03;13.60;88.50
23231;DHT22;11784;49.818;8.632;2022-12-29T07:33:29;13.60;88.90
23231;DHT22;11784;49.818;8.632;2022-12-29T07:35:55;13.70;89.10
23231;DHT22;11784;49.818;8.632;2022-12-29T07:38:21;13.70;89.50
23231;DHT22;11784;49.818;8.632;2022-12-29T07:40:46;13.60;89.40
23231;DHT22;11784;49.818;8.632;2022-12-29T07:43:12;13.60;89.60
23231;DHT22;11784;49.818;8.632;2022-12-29T07:45:37;13.60;89.00
23231;DHT22;11784;49.818;8.632;2022-12-29T07:48:04;13.60;88.80
23231;DHT22;11784;49.818;8.632;2022-12-29T07:50:31;13.60;88.10
23231;DHT22;11784;49.818;8.632;2022-12-29T07:52:56;13.60;88.60
23231;DHT22;11784;49.818;8.632;2022-12-29T07:55:22;13.50;87.20
23231;DHT22;11784;49.818;8.632;2022-12-29T07:57:47;13.60;87.30
23231;DHT22;11784;49.818;8.632;2022-12-29T08:00:13;13.50;87.30
23231;DHT22;11784;49.818;8.632;2022-12-29T08:02:39;13.50;87.40
23231;DHT22;11784;49.818;8.632;2022-12-29T08:05:05;13.60;87.00
23231;DHT22;11784;49.818;8.632;2022-12-29T08:07:30;13.50;86.70
23231;DHT22;11784;49.818;8.632;2022-12-29T08:09:56;13.50;86.60
23231;DHT22;11784;49.818;8.632;2022-12-29T08:12:21;13.60;86.50
23231;DHT22;11784;49.818;8.632;2022-12-29T08:14:47;13.60;86.60
23231;DHT22;11784;49.818;8.632;2022-12-29T08:17:13;13.60;86.10
23231;DHT22;11784;49.818;8.632;2022-12-29T08:19:38;13.60;86.00
23231;DHT22;11784;49.818;8.632;2022-12-29T08:22:04;13.60;86.00
23231;DHT22;11784;49.818;8.632;2022-12-29T08:24:29;13.60;86.00
23231;DHT22;11784;49.818;8.632;2022-12-29T08:26:55;13.50;85.70
23231;DHT22;11784;49.818;8.632;2022-12-29T08:29:20;13.60;85.80
23231;DHT22;11784;49.818;8.632;2022-12-29T08:31:47;13.60;85.70
23231;DHT22;11784;49.818;8.632;2022-12-29T08:34:12;13.60;85.70
23231;DHT22;11784;49.818;8.632;2022-12-29T08:36:38;13.60;85.70
23231;DHT22;11784;49.818;8.632;2022-12-29T08:39:03;13.70;85.50
23231;DHT22;11784;49.818;8.632;2022-12-29T08:41:29;13.70;84.90
23231;DHT22;11784;49.818;8.632;2022-12-29T08:43:54;13.70;85.20
23231;DHT22;11784;49.818;8.632;2022-12-29T08:46:20;13.70;84.60
23231;DHT22;11784;49.818;8.632;2022-12-29T08:48:46;13.70;84.70
23231;DHT22;11784;49.818;8.632;2022-12-29T08:51:11;13.70;84.50
23231;DHT22;11784;49.818;8.632;2022-12-29T08:53:37;13.70;84.70
23231;DHT22;11784;49.818;8.632;2022-12-29T08:56:03;13.70;84.50
23231;DHT22;11784;49.818;8.632;2022-12-29T08:58:29;13.70;84.60
23231;DHT22;11784;49.818;8.632;2022-12-29T09:00:55;13.80;84.20
23231;DHT22;11784;49.818;8.632;2022-12-29T09:03:22;13.80;84.30
23231;DHT22;11784;49.818;8.632;2022-12-29T09:05:49;13.80;84.30
23231;DHT22;11784;49.818;8.632;2022-12-29T09:08:16;13.80;84.10
23231;DHT22;11784;49.818;8.632;2022-12-29T09:10:42;13.80;84.20
23231;DHT22;11784;49.818;8.632;2022-12-29T09:13:07;13.80;83.80
23231;DHT22;11784;49.818;8.632;2022-12-29T09:15:33;13.80;83.90
23231;DHT22;11784;49.818;8.632;2022-12-29T09:17:58;13.90;83.70
23231;DHT22;11784;49.818;8.632;2022-12-29T09:20:24;13.90;84.40
23231;DHT22;11784;49.818;8.632;2022-12-29T09:22:49;13.90;83.60
23231;DHT22;11784;49.818;8.632;2022-12-29T09:25:15;13.90;83.70
23231;DHT22;11784;49.818;8.632;2022-12-29T09:27:41;13.90;83.80
23231;DHT22;11784;49.818;8.632;2022-12-29T09:30:09;13.90;83.90
23231;DHT22;11784;49.818;8.632;2022-12-29T09:32:35;13.90;84.10
23231;DHT22;11784;49.818;8.632;2022-12-29T09:35:01;13.90;83.70
23231;DHT22;11784;49.818;8.632;2022-12-29T09:37:26;13.90;83.90
23231;DHT22;11784;49.818;8.632;2022-12-29T09:39:52;13.90;84.20
23231;DHT22;11784;49.818;8.632;2022-12-29T09:47:40;14.00;84.40
23231;DHT22;11784;49.818;8.632;2022-12-29T09:50:29;14.00;84.70
23231;DHT22;11784;49.818;8.632;2022-12-29T09:53:00;14.00;84.20
23231;DHT22;11784;49.818;8.632;2022-12-29T09:55:37;14.00;84.40
23231;DHT22;11784;49.818;8.632;2022-12-29T09:58:09;14.10;84.60
23231;DHT22;11784;49.818;8.632;2022-12-29T10:00:48;14.20;84.40
23231;DHT22;11784;49.818;8.632;2022-12-29T10:03:16;14.20;84.40
23231;DHT22;11784;49.818;8.632;2022-12-29T10:09:18;14.40;83.00
23231;DHT22;11784;49.818;8.632;2022-12-29T10:12:11;14.40;82.90
23231;DHT22;11784;49.818;8.632;2022-12-29T10:15:03;14.40;82.90
23231;DHT22;11784;49.818;8.632;2022-12-29T10:17:40;14.50;82.40
23231;DHT22;11784;49.818;8.632;2022-12-29T10:25:41;14.50;82.40
23231;DHT22;11784;49.818;8.632;2022-12-29T10:28:40;14.50;82.30
23231;DHT22;11784;49.818;8.632;2022-12-29T10:31:20;14.50;82.00
23231;DHT22;11784;49.818;8.632;2022-12-29T10:33:51;14.60;82.60
23231;DHT22;11784;49.818;8.632;2022-12-29T10:36:20;14.50;82.20
23231;DHT22;11784;49.818;8.632;2022-12-29T10:39:19;14.50;82.60
23231;DHT22;11784;49.818;8.632;2022-12-29T10:44:17;14.40;84.20
23231;DHT22;11784;49.818;8.632;2022-12-29T10:46:44;14.40;85.40
23231;DHT22;11784;49.818;8.632;2022-12-29T10:49:18;14.30;87.90
23231;DHT22;11784;49.818;8.632;2022-12-29T10:51:46;14.20;89.20
23231;DHT22;11784;49.818;8.632;2022-12-29T10:54:26;14.10;89.60
23231;DHT22;11784;49.818;8.632;2022-12-29T10:57:10;13.90;90.00
23231;DHT22;11784;49.818;8.632;2022-12-29T10:59:37;13.80;90.40
23231;DHT22;11784;49.818;8.632;2022-12-29T11:04:52;13.60;91.40
23231;DHT22;11784;49.818;8.632;2022-12-29T11:07:21;13.60;91.90
23231;DHT22;11784;49.818;8.632;2022-12-29T11:09:47;13.50;92.00
23231;DHT22;11784;49.818;8.632;2022-12-29T11:12:22;13.40;92.20
23231;DHT22;11784;49.818;8.632;2022-12-29T11:20:34;13.20;92.90
23231;DHT22;11784;49.818;8.632;2022-12-29T11:23:01;13.20;92.90
23231;DHT22;11784;49.818;8.632;2022-12-29T11:25:28;13.20;93.00
23231;DHT22;11784;49.818;8.632;2022-12-29T11:28:01;13.20;92.80
23231;DHT22;11784;49.818;8.632;2022-12-29T11:30:30;13.20;92.70
23231;DHT22;11784;49.818;8.632;2022-12-29T11:32:56;13.30;92.80
23231;DHT22;11784;49.818;8.632;2022-12-29T11:35:41;13.30;92.70
23231;DHT22;11784;49.818;8.632;2022-12-29T11:38:33;13.30;92.80
23231;DHT22;11784;49.818;8.632;2022-12-29T11:40:59;13.30;92.60
23231;DHT22;11784;49.818;8.632;2022-12-29T11:43:34;13.40;92.60
23231;DHT22;11784;49.818;8.632;2022-12-29T11:46:01;13.40;92.30
23231;DHT22;11784;49.818;8.632;2022-12-29T11:48:40;13.50;92.20
23231;DHT22;11784;49.818;8.632;2022-12-29T11:51:06;13.50;92.20
23231;DHT22;11784;49.818;8.632;2022-12-29T11:53:43;13.50;92.40
23231;DHT22;11784;49.818;8.632;2022-12-29T11:56:17;13.60;92.50
23231;DHT22;11784;49.818;8.632;2022-12-29T11:58:44;13.60;92.40
23231;DHT22;11784;49.818;8.632;2022-12-29T12:01:17;13.70;92.40
23231;DHT22;11784;49.818;8.632;2022-12-29T12:04:03;13.70;92.50
23231;DHT22;11784;49.818;8.632;2022-12-29T12:06:36;13.80;92.90
23231;DHT22;11784;49.818;8.632;2022-12-29T12:09:13;13.80;93.00
23231;DHT22;11784;49.818;8.632;2022-12-29T12:11:40;13.80;93.10
23231;DHT22;11784;49.818;8.632;2022-12-29T12:14:13;13.90;93.00
23231;DHT22;11784;49.818;8.632;2022-12-29T12:16:46;14.00;92.90
23231;DHT22;11784;49.818;8.632;2022-12-29T12:19:34;14.10;92.60
23231;DHT22;11784;49.818;8.632;2022-12-29T12:22:13;14.10;91.50
23231;DHT22;11784;49.818;8.632;2022-12-29T12:24:54;14.10;91.00
23231;DHT22;11784;49.818;8.632;2022-12-29T12:33:00;14.00;90.40
23231;DHT22;11784;49.818;8.632;2022-12-29T12:35:44;14.10;90.30
23231;DHT22;11784;49.818;8.632;2022-12-29T12:41:00;14.10;90.40
23231;DHT22;11784;49.818;8.632;2022-12-29T12:43:39;14.10;90.50
23231;DHT22;11784;49.818;8.632;2022-12-29T12:46:30;14.20;90.60
23231;DHT22;11784;49.818;8.632;2022-12-29T12:49:19;14.20;90.50
23231;DHT22;11784;49.818;8.632;2022-12-29T12:54:36;14.20;90.40
23231;DHT22;11784;49.818;8.632;2022-12-29T13:02:34;14.30;90.40
23231;DHT22;11784;49.818;8.632;2022-12-29T13:10:54;14.40;90.00
23231;DHT22;11784;49.818;8.632;2022-12-29T13:13:51;14.40;89.30
23231;DHT22;11784;49.818;8.632;2022-12-29T13:28:06;14.40;88.70
23231;DHT22;11784;49.818;8.632;2022-12-29T13:30:49;14.50;88.60
23231;DHT22;11784;49.818;8.632;2022-12-29T13:33:29;14.50;88.10
23231;DHT22;11784;49.818;8.632;2022-12-29T13:36:03;14.50;87.60
23231;DHT22;11784;49.818;8.632;2022-12-29T13:38:44;14.40;87.60
23231;DHT22;11784;49.818;8.632;2022-12-29T13:41:18;14.40;86.90
23231;DHT22;11784;49.818;8.632;2022-12-29T13:43:47;14.40;86.60
23231;DHT22;11784;49.818;8.632;2022-12-29T13:46:20;14.40;86.10
23231;DHT22;11784;49.818;8.632;2022-12-29T13:48:55;14.40;87.00
23231;DHT22;11784;49.818;8.632;2022-12-29T13:51:22;14.30;85.70
23231;DHT22;11784;49.818;8.632;2022-12-29T13:54:22;14.40;84.80
23231;DHT22;11784;49.818;8.632;2022-12-29T13:56:55;14.40;84.40
23231;DHT22;11784;49.818;8.632;2022-12-29T14:02:36;14.30;84.00
23231;DHT22;11784;49.818;8.632;2022-12-29T14:07:46;14.30;84.60
23231;DHT22;11784;49.818;8.632;2022-12-29T14:10:35;14.30;84.70
23231;DHT22;11784;49.818;8.632;2022-12-29T14:13:20;14.30;84.00
23231;DHT22;11784;49.818;8.632;2022-12-29T14:15:52;14.30;83.50
23231;DHT22;11784;49.818;8.632;2022-12-29T14:18:21;14.30;83.50
23231;DHT22;11784;49.818;8.632;2022-12-29T14:20:55;14.30;83.40
23231;DHT22;11784;49.818;8.632;2022-12-29T14:23:38;14.30;82.30
23231;DHT22;11784;49.818;8.632;2022-12-29T14:28:38;14.40;81.70
23231;DHT22;11784;49.818;8.632;2022-12-29T14:33:41;14.30;81.70
23231;DHT22;11784;49.818;8.632;2022-12-29T14:36:34;14.30;82.00
23231;DHT22;11784;49.818;8.632;2022-12-29T14:39:00;14.30;82.10
23231;DHT22;11784;49.818;8.632;2022-12-29T14:44:32;14.20;81.60
23231;DHT22;11784;49.818;8.632;2022-12-29T14:47:01;14.20;82.00
23231;DHT22;11784;49.818;8.632;2022-12-29T14:49:31;14.20;82.30
23231;DHT22;11784;49.818;8.632;2022-12-29T14:52:15;14.20;82.40
23231;DHT22;11784;49.818;8.632;2022-12-29T14:54:51;14.20;82.20
23231;DHT22;11784;49.818;8.632;2022-12-29T14:57:39;14.20;82.30
23231;DHT22;11784;49.818;8.632;2022-12-29T15:00:19;14.20;82.20
23231;DHT22;11784;49.818;8.632;2022-12-29T15:02:49;14.20;82.20
23231;DHT22;11784;49.818;8.632;2022-12-29T15:05:40;14.20;82.10
23231;DHT22;11784;49.818;8.632;2022-12-29T15:08:08;14.20;82.00
23231;DHT22;11784;49.818;8.632;2022-12-29T15:10:47;14.20;81.80
23231;DHT22;11784;49.818;8.632;2022-12-29T15:13:17;14.20;82.10
23231;DHT22;11784;49.818;8.632;2022-12-29T15:15:46;14.10;82.20
23231;DHT22;11784;49.818;8.632;2022-12-29T15:18:25;14.10;82.20
23231;DHT22;11784;49.818;8.632;2022-12-29T15:21:03;14.00;82.60
23231;DHT22;11784;49.818;8.632;2022-12-29T15:23:31;14.00;83.00
23231;DHT22;11784;49.818;8.632;2022-12-29T15:26:00;13.90;83.10
23231;DHT22;11784;49.818;8.632;2022-12-29T15:28:27;13.80;83.80
23231;DHT22;11784;49.818;8.632;2022-12-29T15:31:02;13.80;84.00
23231;DHT22;11784;49.818;8.632;2022-12-29T15:33:29;13.70;84.20
23231;DHT22;11784;49.818;8.632;2022-12-29T15:35:56;13.70;84.50
23231;DHT22;11784;49.818;8.632;2022-12-29T15:38:29;13.60;84.70
23231;DHT22;11784;49.818;8.632;2022-12-29T15:40:59;13.60;85.20
23231;DHT22;11784;49.818;8.632;2022-12-29T15:43:40;13.50;85.40
23231;DHT22;11784;49.818;8.632;2022-12-29T15:46:10;13.50;85.60
23231;DHT22;11784;49.818;8.632;2022-12-29T15:48:38;13.40;86.10
23231;DHT22;11784;49.818;8.632;2022-12-29T15:51:15;13.30;86.30
23231;DHT22;11784;49.818;8.632;2022-12-29T15:53:42;13.30;86.60
23231;DHT22;11784;49.818;8.632;2022-12-29T15:56:11;13.20;86.70
23231;DHT22;11784;49.818;8.632;2022-12-29T15:58:41;13.30;86.90
23231;DHT22;11784;49.818;8.632;2022-12-29T16:01:18;13.30;86.70
23231;DHT22;11784;49.818;8.632;2022-12-29T16:03:45;13.20;87.10
23231;DHT22;11784;49.818;8.632;2022-12-29T16:06:27;13.20;87.20
23231;DHT22;11784;49.818;8.632;2022-12-29T16:11:39;13.10;87.50
23231;DHT22;11784;49.818;8.632;2022-12-29T16:14:16;13.10;87.50
23231;DHT22;11784;49.818;8.632;2022-12-29T16:16:44;13.10;87.50
23231;DHT22;11784;49.818;8.632;2022-12-29T16:19:34;13.10;87.60
23231;DHT22;11784;49.818;8.632;2022-12-29T16:22:11;13.00;87.60
23231;DHT22;11784;49.818;8.632;2022-12-29T16:24:39;13.00;87.80
23231;DHT22;11784;49.818;8.632;2022-12-29T16:29:30;12.90;88.20
23231;DHT22;11784;49.818;8.632;2022-12-29T16:31:58;12.90;88.20
23231;DHT22;11784;49.818;8.632;2022-12-29T16:34:33;12.90;88.20
23231;DHT22;11784;49.818;8.632;2022-12-29T16:37:05;12.90;88.30
23231;DHT22;11784;49.818;8.632;2022-12-29T16:39:49;12.90;88.10
23231;DHT22;11784;49.818;8.632;2022-12-29T16:50:31;12.90;87.30
23231;DHT22;11784;49.818;8.632;2022-12-29T16:52:58;12.90;87.30
23231;DHT22;11784;49.818;8.632;2022-12-29T16:55:23;12.90;87.20
23231;DHT22;11784;49.818;8.632;2022-12-29T16:57:51;12.80;86.90
23231;DHT22;11784;49.818;8.632;2022-12-29T17:00:24;12.90;87.20
23231;DHT22;11784;49.818;8.632;2022-12-29T17:02:53;12.80;87.00
23231;DHT22;11784;49.818;8.632;2022-12-29T17:05:20;12.90;87.00
23231;DHT22;11784;49.818;8.632;2022-12-29T17:07:46;12.80;86.80
23231;DHT22;11784;49.818;8.632;2022-12-29T17:10:12;12.90;86.90
23231;DHT22;11784;49.818;8.632;2022-12-29T17:12:40;12.80;86.80
23231;DHT22;11784;49.818;8.632;2022-12-29T17:15:19;12.80;86.80
23231;DHT22;11784;49.818;8.632;2022-12-29T17:17:47;12.80;86.60
23231;DHT22;11784;49.818;8.632;2022-12-29T17:20:27;12.80;86.40
23231;DHT22;11784;49.818;8.632;2022-12-29T17:22:54;12.80;86.40
23231;DHT22;11784;49.818;8.632;2022-12-29T17:25:29;12.70;86.30
23231;DHT22;11784;49.818;8.632;2022-12-29T17:28:12;12.70;86.30
23231;DHT22;11784;49.818;8.632;2022-12-29T17:30:41;12.70;86.50
23231;DHT22;11784;49.818;8.632;2022-12-29T17:33:11;12.70;86.60
23231;DHT22;11784;49.818;8.632;2022-12-29T17:35:43;12.70;86.90
23231;DHT22;11784;49.818;8.632;2022-12-29T17:38:21;12.70;86.90
23231;DHT22;11784;49.818;8.632;2022-12-29T17:40:48;12.70;87.00
23231;DHT22;11784;49.818;8.632;2022-12-29T17:43:15;12.70;87.10
23231;DHT22;11784;49.818;8.632;2022-12-29T17:45:41;12.70;87.10
23231;DHT22;11784;49.818;8.632;2022-12-29T17:48:16;12.60;87.30
23231;DHT22;11784;49.818;8.632;2022-12-29T17:50:42;12.70;87.40
23231;DHT22;11784;49.818;8.632;2022-12-29T17:53:18;12.70;87.10